Time;durP1;ratioP1;P1;durP2;ratioP2;P2;SDS_P1;SDS_P2;PMS_P1;PMS_P2;Temp;Humidity;BMP_temperature;BMP_pressure;BME280_temperature;BME280_humidity;BME280_pressure;Samples;Min_cycle;Max_cycle;Signal;HPM_P1;HPM_P2
2022/09/03 00:01:57;;;;;;;3.57;2.10;;;15.90;1.00;;;;;;5033473;28;20210;-54
2022/09/03 00:04:28;;;;;;;1.93;1.60;;;15.80;1.00;;;;;;5033078;28;20634;-54
2022/09/03 00:07:01;;;;;;;2.10;1.60;;;15.80;1.00;;;;;;5033173;28;20206;-55
2022/09/03 00:09:33;;;;;;;4.83;2.13;;;15.90;1.00;;;;;;5033062;28;20206;-57
2022/09/03 00:12:08;;;;;;;3.20;1.43;;;15.90;1.00;;;;;;5033241;28;20206;-52
2022/09/03 00:14:38;;;;;;;5.03;1.60;;;15.80;1.00;;;;;;5032812;28;20705;-55
2022/09/03 00:17:11;;;;;;;3.13;1.43;;;15.80;1.00;;;;;;5032869;28;20206;-55
2022/09/03 00:19:43;;;;;;;1.83;1.43;;;15.70;1.00;;;;;;5032754;28;20281;-57
2022/09/03 00:22:15;;;;;;;3.73;1.70;;;15.80;1.00;;;;;;5033074;28;20206;-58
2022/09/03 00:24:44;;;;;;;3.33;1.80;;;15.80;1.00;;;;;;5032877;28;20276;-57
2022/09/03 00:27:15;;;;;;;2.47;1.73;;;15.70;1.00;;;;;;5032845;28;20213;-54
2022/09/03 00:29:48;;;;;;;1.90;1.50;;;15.70;1.00;;;;;;5032908;28;20260;-54
2022/09/03 00:32:22;;;;;;;2.33;1.70;;;15.70;1.00;;;;;;5032765;28;20207;-54
2022/09/03 00:34:52;;;;;;;4.07;1.90;;;15.70;1.00;;;;;;5032647;28;20309;-50
2022/09/03 00:37:19;;;;;;;2.33;1.60;;;15.70;1.00;;;;;;5032730;28;20206;-58
2022/09/03 00:39:45;;;;;;;2.00;1.57;;;15.70;1.00;;;;;;5032773;28;20269;-56
2022/09/03 00:42:30;;;;;;;2.40;1.60;;;15.60;1.00;;;;;;5032633;28;20283;-56
2022/09/03 00:45:08;;;;;;;1.90;1.67;;;15.60;1.00;;;;;;5032264;28;20234;-55
2022/09/03 00:47:43;;;;;;;2.80;1.70;;;15.60;1.00;;;;;;5032129;28;20206;-52
2022/09/03 00:50:17;;;;;;;3.97;1.20;;;15.60;1.00;;;;;;5032692;28;20275;-55
2022/09/03 00:52:54;;;;;;;5.33;1.80;;;15.60;1.00;;;;;;5032403;28;20260;-54
2022/09/03 00:55:29;;;;;;;2.73;1.60;;;15.60;1.00;;;;;;5032423;28;20226;-56
2022/09/03 00:58:11;;;;;;;3.00;1.67;;;15.50;1.00;;;;;;5032233;28;20206;-52
2022/09/03 01:00:40;;;;;;;1.57;1.47;;;15.50;1.00;;;;;;5032119;28;20275;-54
2022/09/03 01:03:11;;;;;;;1.90;1.40;;;15.50;1.00;;;;;;5032309;28;20202;-50
2022/09/03 01:05:47;;;;;;;2.13;1.50;;;15.50;1.00;;;;;;5032027;28;20252;-56
2022/09/03 01:08:31;;;;;;;2.43;1.50;;;15.50;1.00;;;;;;5032238;28;20205;-58
2022/09/03 01:11:09;;;;;;;2.60;1.67;;;15.50;1.00;;;;;;5032146;28;20293;-55
2022/09/03 01:13:40;;;;;;;1.97;1.70;;;15.50;1.00;;;;;;5032147;28;20218;-55
2022/09/03 01:16:15;;;;;;;2.80;1.60;;;15.50;1.00;;;;;;5031803;28;20616;-55
2022/09/03 01:18:52;;;;;;;1.53;1.43;;;15.50;1.00;;;;;;5032436;28;20202;-51
2022/09/03 01:21:45;;;;;;;2.37;1.63;;;15.50;1.00;;;;;;5032042;28;20209;-56
2022/09/03 01:24:31;;;;;;;2.17;1.53;;;15.50;1.00;;;;;;5032034;28;20313;-56
2022/09/03 01:27:14;;;;;;;1.50;1.33;;;15.50;1.00;;;;;;5031789;28;20862;-54
2022/09/03 01:29:50;;;;;;;2.10;1.70;;;15.50;1.00;;;;;;5032087;28;20272;-56
2022/09/03 01:32:30;;;;;;;1.93;1.33;;;15.50;1.00;;;;;;5032209;28;20234;-54
2022/09/03 01:35:04;;;;;;;4.50;1.50;;;15.50;1.00;;;;;;5031878;28;20225;-55
2022/09/03 01:37:42;;;;;;;1.77;1.40;;;15.50;1.00;;;;;;5032002;28;20209;-54
2022/09/03 01:40:17;;;;;;;3.87;1.60;;;15.50;1.00;;;;;;5031962;28;20217;-56
2022/09/03 01:42:53;;;;;;;2.87;1.33;;;15.50;1.00;;;;;;5032188;28;20236;-56
2022/09/03 01:45:43;;;;;;;1.73;1.40;;;15.50;1.00;;;;;;5031275;28;20300;-55
2022/09/03 01:48:42;;;;;;;3.47;1.50;;;15.50;1.00;;;;;;5032016;28;20214;-54
2022/09/03 01:51:18;;;;;;;2.33;1.43;;;15.50;1.00;;;;;;5031757;28;20271;-52
2022/09/03 01:54:16;;;;;;;2.30;1.67;;;15.50;1.00;;;;;;5031823;28;20222;-55
2022/09/03 01:57:00;;;;;;;4.20;1.90;;;15.50;1.00;;;;;;5031714;28;20260;-51
2022/09/03 01:59:31;;;;;;;2.50;1.43;;;15.50;1.00;;;;;;5032058;28;20214;-56
2022/09/03 02:02:05;;;;;;;1.80;1.30;;;15.50;1.00;;;;;;5035535;28;20186;-53
2022/09/03 02:04:32;;;;;;;3.27;1.43;;;15.50;1.00;;;;;;5035459;28;20321;-57
2022/09/03 02:07:00;;;;;;;2.60;1.80;;;15.50;1.00;;;;;;5034950;28;20284;-56
2022/09/03 02:09:28;;;;;;;2.00;1.53;;;15.50;1.00;;;;;;5035141;28;20206;-56
2022/09/03 02:11:59;;;;;;;2.20;1.60;;;15.50;1.00;;;;;;5034926;28;20669;-56
2022/09/03 02:14:28;;;;;;;3.40;1.70;;;15.50;1.00;;;;;;5034918;28;20218;-55
2022/09/03 02:17:00;;;;;;;2.60;1.50;;;15.50;1.00;;;;;;5034826;28;20256;-54
2022/09/03 02:19:28;;;;;;;2.23;1.47;;;15.40;1.00;;;;;;5034877;28;20669;-56
2022/09/03 02:21:57;;;;;;;1.80;1.57;;;15.40;1.00;;;;;;5034751;28;20205;-55
2022/09/03 02:24:25;;;;;;;1.93;1.60;;;15.40;1.00;;;;;;5034875;28;20276;-57
2022/09/03 02:26:52;;;;;;;3.70;1.63;;;15.40;1.00;;;;;;5034578;28;20328;-57
2022/09/03 02:29:21;;;;;;;2.63;1.50;;;15.30;1.00;;;;;;5034933;28;20573;-54
2022/09/03 02:31:47;;;;;;;3.87;1.50;;;15.30;1.00;;;;;;5034811;28;20206;-57
2022/09/03 02:34:15;;;;;;;2.10;1.33;;;15.30;1.00;;;;;;5034554;28;20223;-57
2022/09/03 02:36:45;;;;;;;2.60;1.47;;;15.20;1.00;;;;;;5034448;28;20202;-57
2022/09/03 02:39:12;;;;;;;2.10;1.60;;;15.20;1.00;;;;;;5034257;28;20253;-56
2022/09/03 02:41:39;;;;;;;1.90;1.50;;;15.20;1.00;;;;;;5034658;28;20214;-57
2022/09/03 02:44:11;;;;;;;2.33;1.90;;;15.20;1.00;;;;;;5034497;28;20272;-53
2022/09/03 02:46:40;;;;;;;1.47;1.30;;;15.10;1.00;;;;;;5034493;28;20275;-54
2022/09/03 02:49:08;;;;;;;6.00;1.80;;;15.10;1.00;;;;;;5034525;28;20263;-57
2022/09/03 02:51:37;;;;;;;3.87;1.97;;;15.10;1.00;;;;;;5034312;28;20790;-53
2022/09/03 02:54:04;;;;;;;4.13;1.80;;;15.10;1.00;;;;;;5034259;28;20226;-55
2022/09/03 02:56:31;;;;;;;2.87;1.60;;;15.00;1.00;;;;;;5033992;28;20688;-55
2022/09/03 02:58:59;;;;;;;2.60;1.70;;;15.00;1.00;;;;;;5034216;28;20260;-55
2022/09/03 03:01:26;;;;;;;2.43;1.43;;;15.00;1.00;;;;;;5034360;28;20206;-54
2022/09/03 03:03:53;;;;;;;1.63;1.53;;;14.90;1.00;;;;;;5034718;28;20226;-57
2022/09/03 03:06:20;;;;;;;2.60;1.47;;;14.90;1.00;;;;;;5035007;28;20264;-50
2022/09/03 03:08:48;;;;;;;5.63;1.60;;;14.90;1.00;;;;;;5034550;28;20218;-55
2022/09/03 03:11:17;;;;;;;3.57;1.30;;;15.00;1.00;;;;;;5034001;28;20206;-57
2022/09/03 03:13:44;;;;;;;1.80;1.53;;;14.90;1.00;;;;;;5034001;28;20229;-58
2022/09/03 03:16:12;;;;;;;3.87;1.57;;;15.00;1.00;;;;;;5033698;28;20589;-57
2022/09/03 03:18:39;;;;;;;2.07;1.40;;;15.00;1.00;;;;;;5034083;28;20674;-57
2022/09/03 03:21:07;;;;;;;3.00;1.63;;;15.00;1.00;;;;;;5033763;28;20210;-56
2022/09/03 03:23:35;;;;;;;2.60;1.73;;;14.90;1.00;;;;;;5033694;28;20681;-56
2022/09/03 03:26:04;;;;;;;1.70;1.50;;;14.90;1.00;;;;;;5033628;28;20230;-58
2022/09/03 03:28:33;;;;;;;1.50;1.40;;;14.90;1.00;;;;;;5033687;28;20222;-57
2022/09/03 03:31:04;;;;;;;5.80;1.53;;;14.90;1.00;;;;;;5033685;28;20673;-55
2022/09/03 03:33:31;;;;;;;2.50;1.60;;;15.00;1.00;;;;;;5033528;28;20618;-57
2022/09/03 03:35:58;;;;;;;1.77;1.50;;;14.90;1.00;;;;;;5033303;28;20669;-55
2022/09/03 03:38:25;;;;;;;4.03;1.80;;;14.90;1.00;;;;;;5033481;28;20260;-57
2022/09/03 03:40:51;;;;;;;3.47;1.40;;;14.90;1.00;;;;;;5033614;28;20251;-57
2022/09/03 03:43:19;;;;;;;4.20;1.97;;;14.90;1.00;;;;;;5033130;28;20213;-53
2022/09/03 03:45:56;;;;;;;2.63;1.90;;;14.90;1.00;;;;;;5033399;28;20784;-53
2022/09/03 03:48:23;;;;;;;2.17;1.43;;;14.90;1.00;;;;;;5033561;28;20213;-51
2022/09/03 03:50:50;;;;;;;3.23;1.93;;;14.80;1.00;;;;;;5033431;28;20272;-55
2022/09/03 03:53:16;;;;;;;2.83;1.70;;;14.80;1.00;;;;;;5033056;28;20207;-52
2022/09/03 03:55:43;;;;;;;3.60;1.63;;;14.80;1.00;;;;;;5033128;28;20743;-53
2022/09/03 03:58:10;;;;;;;1.80;1.50;;;14.80;1.00;;;;;;5032889;28;20208;-54
2022/09/03 04:00:38;;;;;;;2.17;1.73;;;14.80;1.00;;;;;;5033054;28;20204;-58
2022/09/03 04:03:04;;;;;;;2.67;1.63;;;14.70;1.00;;;;;;5033098;28;20307;-57
2022/09/03 04:05:31;;;;;;;2.00;1.63;;;14.60;1.00;;;;;;5033024;28;20286;-56
2022/09/03 04:08:02;;;;;;;1.97;1.60;;;14.60;1.00;;;;;;5032615;28;20214;-55
2022/09/03 04:10:28;;;;;;;2.03;1.77;;;14.60;1.00;;;;;;5033064;28;20214;-57
2022/09/03 04:12:55;;;;;;;2.40;1.37;;;14.60;1.00;;;;;;5032725;28;20672;-53
2022/09/03 04:15:21;;;;;;;2.97;1.63;;;14.50;1.00;;;;;;5032906;28;20229;-57
2022/09/03 04:17:49;;;;;;;2.57;1.90;;;14.50;1.00;;;;;;5032932;28;20216;-56
2022/09/03 04:20:16;;;;;;;2.67;1.80;;;14.50;1.00;;;;;;5033103;28;20210;-55
2022/09/03 04:22:42;;;;;;;1.83;1.60;;;14.50;1.00;;;;;;5032072;28;20254;-57
2022/09/03 04:25:09;;;;;;;4.43;1.90;;;14.40;1.00;;;;;;5032662;28;20646;-53
2022/09/03 04:27:37;;;;;;;3.37;2.20;;;14.40;1.00;;;;;;5032291;28;20629;-56
2022/09/03 04:30:04;;;;;;;3.00;1.90;;;14.40;1.00;;;;;;5032729;28;20209;-57
2022/09/03 04:35:16;;;;;;;1.83;1.60;;;14.30;1.60;;;;;;5032468;28;20228;-57
2022/09/03 04:37:43;;;;;;;2.53;1.90;;;14.30;2.40;;;;;;5032261;28;20216;-56
2022/09/03 04:40:10;;;;;;;1.90;1.60;;;14.20;1.90;;;;;;5032318;28;20203;-55
2022/09/03 04:42:37;;;;;;;4.00;2.07;;;14.20;2.10;;;;;;5032639;28;20210;-57
2022/09/03 04:45:04;;;;;;;2.00;1.60;;;14.20;1.90;;;;;;5031970;28;20283;-54
2022/09/03 04:47:30;;;;;;;4.47;1.67;;;14.20;2.30;;;;;;5032137;28;20261;-53
2022/09/03 04:49:57;;;;;;;3.43;1.73;;;14.20;13.50;;;;;;5032311;28;20209;-54
2022/09/03 04:52:30;;;;;;;1.77;1.63;;;14.20;1.80;;;;;;5032105;28;20209;-52
2022/09/03 04:54:56;;;;;;;3.73;1.60;;;14.20;3.20;;;;;;5032094;28;20235;-51
2022/09/03 04:57:23;;;;;;;2.53;1.70;;;14.20;4.10;;;;;;5031829;28;20206;-56
2022/09/03 04:59:50;;;;;;;2.97;1.50;;;14.20;5.00;;;;;;5032005;28;20258;-51
2022/09/03 05:02:16;;;;;;;2.60;1.80;;;14.20;5.60;;;;;;5032370;28;20559;-55
2022/09/03 05:04:43;;;;;;;2.20;2.00;;;14.20;6.30;;;;;;5032053;28;20279;-52
2022/09/03 05:07:10;;;;;;;4.60;1.83;;;14.20;6.20;;;;;;5031724;28;20285;-56
2022/09/03 05:09:38;;;;;;;3.07;1.90;;;14.20;5.80;;;;;;5032151;28;20235;-57
2022/09/03 05:12:05;;;;;;;3.27;1.70;;;14.20;5.30;;;;;;5032116;28;20208;-54
2022/09/03 05:14:31;;;;;;;2.27;1.60;;;14.20;6.50;;;;;;5031846;28;20255;-55
2022/09/03 05:16:58;;;;;;;1.87;1.60;;;14.20;18.60;;;;;;5031841;28;20637;-54
2022/09/03 05:19:25;;;;;;;2.43;1.70;;;14.20;7.00;;;;;;5031857;28;20205;-55
2022/09/03 05:21:51;;;;;;;3.17;1.87;;;14.20;7.50;;;;;;5031846;28;20263;-56
2022/09/03 05:24:18;;;;;;;2.20;1.80;;;14.20;9.00;;;;;;5031862;28;20224;-56
2022/09/03 05:26:47;;;;;;;2.33;1.90;;;14.20;10.20;;;;;;5031642;28;20209;-58
2022/09/03 05:29:14;;;;;;;2.30;2.10;;;14.20;11.10;;;;;;5031787;28;20208;-55
2022/09/03 05:31:41;;;;;;;2.00;1.80;;;14.10;13.00;;;;;;5031894;28;20207;-58
2022/09/03 05:34:08;;;;;;;3.67;2.03;;;14.10;13.90;;;;;;5033114;28;20656;-57
2022/09/03 05:36:37;;;;;;;2.93;2.10;;;14.10;15.40;;;;;;5035539;28;20212;-58
2022/09/03 05:39:05;;;;;;;3.80;2.07;;;14.10;17.60;;;;;;5035783;28;20208;-56
2022/09/03 05:41:32;;;;;;;3.23;2.03;;;14.10;18.60;;;;;;5036070;28;20240;-52
2022/09/03 05:44:01;;;;;;;5.67;1.77;;;14.10;20.10;;;;;;5035467;28;20600;-57
2022/09/03 05:46:30;;;;;;;2.30;2.00;;;14.20;20.90;;;;;;5035395;28;20229;-55
2022/09/03 05:48:58;;;;;;;3.30;2.40;;;14.20;22.60;;;;;;5035422;28;20207;-58
2022/09/03 05:51:24;;;;;;;2.83;2.10;;;14.20;25.90;;;;;;5035253;28;20216;-55
2022/09/03 05:53:52;;;;;;;3.10;2.37;;;14.20;30.20;;;;;;5035435;28;20233;-56
2022/09/03 05:56:20;;;;;;;2.33;2.07;;;14.20;34.60;;;;;;5035406;28;20204;-53
2022/09/03 05:58:48;;;;;;;2.67;2.13;;;14.20;36.50;;;;;;5035298;28;20298;-57
2022/09/03 06:01:19;;;;;;;3.53;2.20;;;14.30;37.90;;;;;;5035251;28;20255;-55
2022/09/03 06:03:48;;;;;;;2.33;2.03;;;14.40;36.90;;;;;;5035380;28;20237;-52
2022/09/03 06:06:15;;;;;;;4.13;2.10;;;14.40;36.60;;;;;;5035174;28;20226;-55
2022/09/03 06:08:43;;;;;;;6.50;2.00;;;14.50;35.80;;;;;;5035245;28;20210;-55
2022/09/03 06:11:11;;;;;;;3.73;2.53;;;14.60;37.40;;;;;;5035192;28;20274;-53
2022/09/03 06:13:38;;;;;;;2.93;1.87;;;14.60;35.50;;;;;;5034941;28;20230;-54
2022/09/03 06:16:06;;;;;;;3.83;2.50;;;14.70;37.30;;;;;;5034835;28;20202;-57
2022/09/03 06:18:34;;;;;;;2.77;2.10;;;14.70;38.80;;;;;;5035135;28;20210;-56
2022/09/03 06:21:03;;;;;;;5.87;2.43;;;14.80;44.80;;;;;;5035018;28;20692;-51
2022/09/03 06:23:30;;;;;;;4.23;2.50;;;14.80;47.80;;;;;;5034836;28;20743;-54
2022/09/03 06:26:01;;;;;;;4.43;2.33;;;14.90;49.10;;;;;;5034736;28;20876;-54
2022/09/03 06:28:28;;;;;;;3.23;2.00;;;15.00;49.40;;;;;;5036959;28;20205;-55
2022/09/03 06:30:58;;;;;;;3.63;2.73;;;15.10;49.10;;;;;;5040279;28;20213;-58
2022/09/03 06:33:24;;;;;;;5.03;2.47;;;15.20;47.10;;;;;;5037655;28;20213;-56
2022/09/03 06:35:58;;;;;;;2.27;1.90;;;15.20;45.70;;;;;;5034823;28;20209;-55
2022/09/03 06:38:25;;;;;;;2.73;2.10;;;15.30;44.80;;;;;;5034716;28;20296;-57
2022/09/03 06:40:53;;;;;;;3.37;1.80;;;15.40;44.40;;;;;;5034430;28;20202;-61
2022/09/03 06:43:20;;;;;;;2.67;2.00;;;15.50;41.70;;;;;;5034442;28;20214;-57
2022/09/03 06:45:54;;;;;;;2.57;1.93;;;15.60;55.20;;;;;;5034207;28;20276;-57
2022/09/03 06:48:20;;;;;;;2.80;1.80;;;15.60;33.50;;;;;;5034766;28;20210;-56
2022/09/03 06:50:55;;;;;;;4.13;1.63;;;15.80;31.50;;;;;;5034571;28;20206;-56
2022/09/03 06:53:24;;;;;;;3.23;1.83;;;15.90;27.90;;;;;;5034568;28;20585;-58
2022/09/03 06:55:54;;;;;;;5.33;1.87;;;15.90;28.70;;;;;;5034886;28;20198;-57
2022/09/03 06:58:21;;;;;;;3.90;2.00;;;16.00;26.20;;;;;;5034720;28;20559;-57
2022/09/03 07:00:49;;;;;;;6.53;1.93;;;16.10;26.60;;;;;;5034526;28;20241;-57
2022/09/03 07:03:16;;;;;;;2.23;1.80;;;16.20;26.90;;;;;;5034463;28;20212;-57
2022/09/03 07:05:43;;;;;;;7.53;2.03;;;16.30;25.90;;;;;;5034060;28;20377;-58
2022/09/03 07:08:11;;;;;;;3.00;2.00;;;16.40;24.50;;;;;;5034018;28;20216;-59
2022/09/03 07:10:38;;;;;;;13.67;8.20;;;16.50;25.50;;;;;;5034391;28;20261;-59
2022/09/03 07:13:06;;;;;;;3.37;2.00;;;16.70;27.00;;;;;;5034335;28;20268;-60
2022/09/03 07:15:32;;;;;;;3.13;1.87;;;16.80;25.10;;;;;;5034122;28;20228;-59
2022/09/03 07:17:59;;;;;;;2.40;1.70;;;17.00;24.10;;;;;;5033690;28;20216;-59
2022/09/03 07:20:26;;;;;;;2.97;1.80;;;17.10;25.70;;;;;;5033815;28;20276;-59
2022/09/03 07:22:55;;;;;;;3.10;1.90;;;17.20;25.20;;;;;;5033801;28;20202;-57
2022/09/03 07:25:24;;;;;;;2.27;1.67;;;17.40;25.00;;;;;;5033839;28;20227;-56
2022/09/03 07:27:51;;;;;;;2.57;1.93;;;17.50;22.20;;;;;;5034057;28;20206;-59
2022/09/03 07:30:18;;;;;;;2.87;1.57;;;17.60;23.10;;;;;;5033730;28;20693;-58
2022/09/03 07:32:45;;;;;;;5.17;1.90;;;17.70;37.40;;;;;;5033636;28;20297;-58
2022/09/03 07:35:12;;;;;;;2.10;1.47;;;17.80;23.80;;;;;;5033388;28;20280;-59
2022/09/03 07:37:41;;;;;;;3.07;1.80;;;18.00;23.10;;;;;;5033747;28;20202;-56
2022/09/03 07:40:09;;;;;;;3.00;1.67;;;18.10;22.70;;;;;;5032970;28;20677;-58
2022/09/03 07:42:38;;;;;;;2.60;1.67;;;18.20;22.70;;;;;;5033571;28;20210;-56
2022/09/03 07:45:08;;;;;;;3.30;1.60;;;18.30;24.90;;;;;;5033086;28;20320;-58
2022/09/03 07:47:35;;;;;;;2.20;1.40;;;18.50;23.30;;;;;;5032979;28;20209;-57
2022/09/03 07:50:03;;;;;;;2.10;1.50;;;18.70;26.20;;;;;;5033226;28;20630;-58
2022/09/03 07:52:30;;;;;;;5.00;1.80;;;18.80;24.00;;;;;;5033207;28;20212;-58
2022/09/03 07:54:56;;;;;;;1.87;1.10;;;19.00;24.40;;;;;;5033052;28;20284;-56
2022/09/03 07:57:23;;;;;;;2.23;1.70;;;19.10;25.80;;;;;;5032108;28;20241;-58
2022/09/03 07:59:51;;;;;;;1.80;1.40;;;19.20;27.40;;;;;;5033051;28;20203;-59
2022/09/03 08:02:18;;;;;;;1.57;1.17;;;19.40;26.60;;;;;;5033007;28;20214;-58
2022/09/03 08:04:44;;;;;;;2.80;1.50;;;19.60;27.50;;;;;;5033062;28;20230;-58
2022/09/03 08:07:11;;;;;;;2.03;1.17;;;19.80;26.50;;;;;;5032686;28;20712;-58
2022/09/03 08:09:38;;;;;;;3.40;1.10;;;20.00;27.80;;;;;;5033056;28;20206;-57
2022/09/03 08:12:05;;;;;;;5.77;1.30;;;20.20;28.10;;;;;;5032951;28;20202;-56
2022/09/03 08:14:32;;;;;;;3.23;1.10;;;20.30;28.50;;;;;;5033003;28;20309;-56
2022/09/03 08:17:00;;;;;;;1.13;0.90;;;20.50;31.90;;;;;;5032844;28;20198;-58
2022/09/03 08:19:26;;;;;;;2.97;1.10;;;20.60;30.50;;;;;;5033057;28;20210;-57
2022/09/03 08:21:53;;;;;;;1.97;1.03;;;20.70;29.30;;;;;;5032765;28;20206;-59
2022/09/03 08:24:23;;;;;;;2.23;1.03;;;20.80;28.90;;;;;;5032786;28;20720;-57
2022/09/03 08:26:50;;;;;;;3.30;1.10;;;20.90;30.20;;;;;;5032298;28;20242;-58
2022/09/03 08:29:16;;;;;;;1.53;1.10;;;21.10;30.90;;;;;;5032578;28;20210;-57
2022/09/03 08:31:43;;;;;;;1.90;1.20;;;21.20;29.60;;;;;;5032619;28;20210;-59
2022/09/03 08:34:13;;;;;;;2.57;1.07;;;21.20;27.90;;;;;;5032641;28;20233;-53
2022/09/03 08:36:41;;;;;;;1.00;0.90;;;21.20;26.40;;;;;;5032035;28;20234;-57
2022/09/03 08:39:09;;;;;;;2.93;1.00;;;21.30;25.60;;;;;;5032435;28;20252;-57
2022/09/03 08:41:46;;;;;;;3.17;1.10;;;21.50;30.80;;;;;;5032375;28;20206;-57
2022/09/03 08:44:25;;;;;;;1.30;0.90;;;21.60;28.20;;;;;;5032309;28;20229;-54
2022/09/03 08:46:57;;;;;;;3.07;0.97;;;21.80;29.50;;;;;;5032045;28;20276;-56
2022/09/03 08:49:30;;;;;;;3.50;1.33;;;21.90;29.90;;;;;;5032518;28;20210;-59
2022/09/03 08:52:00;;;;;;;2.60;1.20;;;22.10;30.90;;;;;;5032026;28;20214;-59
2022/09/03 08:54:30;;;;;;;3.10;1.27;;;22.20;32.40;;;;;;5032288;28;20223;-55
2022/09/03 08:57:01;;;;;;;3.67;1.40;;;22.30;31.70;;;;;;5032064;28;20209;-52
2022/09/03 08:59:28;;;;;;;1.60;1.20;;;22.40;32.80;;;;;;5032248;28;20268;-56
2022/09/03 09:01:59;;;;;;;1.50;1.00;;;22.40;30.40;;;;;;5032424;28;20207;-55
2022/09/03 09:04:43;;;;;;;2.73;1.50;;;22.50;35.00;;;;;;5032124;28;20226;-56
2022/09/03 09:07:16;;;;;;;1.47;1.27;;;22.50;32.50;;;;;;5032005;28;20283;-56
2022/09/03 09:09:50;;;;;;;3.10;1.40;;;22.60;32.00;;;;;;5032678;28;20214;-57
2022/09/03 09:12:29;;;;;;;1.10;1.00;;;22.60;32.60;;;;;;5032067;28;20202;-53
2022/09/03 09:15:06;;;;;;;2.30;1.30;;;22.70;35.00;;;;;;5031805;28;20230;-52
2022/09/03 09:17:53;;;;;;;3.23;1.13;;;22.60;30.70;;;;;;5031826;28;20206;-55
2022/09/03 09:20:32;;;;;;;6.20;1.33;;;22.70;31.00;;;;;;5032008;28;20202;-55
2022/09/03 09:23:04;;;;;;;3.20;1.40;;;22.70;30.60;;;;;;5032223;28;20213;-55
2022/09/03 09:25:37;;;;;;;2.17;1.23;;;22.80;30.50;;;;;;5032011;28;20253;-56
2022/09/03 09:28:13;;;;;;;2.93;1.50;;;23.00;34.70;;;;;;5031850;28;20233;-56
2022/09/03 09:30:41;;;;;;;1.50;1.07;;;23.00;32.20;;;;;;5031944;28;20271;-57
2022/09/03 09:33:07;;;;;;;3.50;1.20;;;23.10;34.70;;;;;;5032281;28;20292;-53
2022/09/03 09:35:35;;;;;;;1.80;1.10;;;23.10;33.70;;;;;;5031957;28;20237;-55
2022/09/03 09:38:02;;;;;;;1.57;1.43;;;23.10;31.90;;;;;;5031345;28;20202;-57
2022/09/03 09:40:32;;;;;;;4.20;1.20;;;23.20;33.90;;;;;;5032184;28;20294;-55
2022/09/03 09:43:11;;;;;;;1.10;1.00;;;23.00;31.10;;;;;;5031643;28;20681;-54
2022/09/03 09:45:44;;;;;;;1.10;1.00;;;23.10;32.50;;;;;;5031809;28;20237;-56
2022/09/03 09:48:20;;;;;;;3.83;1.30;;;23.20;31.70;;;;;;5031593;28;20360;-56
2022/09/03 09:51:04;;;;;;;1.93;1.23;;;22.90;29.20;;;;;;5031649;28;20206;-57
2022/09/03 09:53:31;;;;;;;3.43;1.27;;;22.80;30.20;;;;;;5031925;28;20230;-54
2022/09/03 09:55:59;;;;;;;3.17;1.47;;;22.90;30.30;;;;;;5031719;28;20206;-54
2022/09/03 09:58:29;;;;;;;2.57;1.83;;;23.10;32.60;;;;;;5031886;28;20210;-56
2022/09/03 10:00:59;;;;;;;4.47;1.73;;;23.30;34.70;;;;;;5032426;28;20238;-56
2022/09/03 10:03:28;;;;;;;1.67;1.47;;;23.60;36.40;;;;;;5032229;28;20268;-55
2022/09/03 10:08:47;;;;;;;1.50;1.40;;;23.80;34.20;;;;;;5031414;28;20412;-56
2022/09/03 10:11:13;;;;;;;4.47;1.50;;;23.90;35.00;;;;;;5031620;28;20206;-54
2022/09/03 10:13:43;;;;;;;2.33;1.30;;;24.00;38.20;;;;;;5031376;28;20603;-52
2022/09/03 10:16:20;;;;;;;1.40;1.27;;;24.00;41.00;;;;;;5031319;28;20210;-53
2022/09/03 10:18:53;;;;;;;4.30;1.30;;;24.00;36.40;;;;;;5031656;28;20630;-57
2022/09/03 10:21:28;;;;;;;3.93;1.40;;;23.90;36.30;;;;;;5033013;28;20677;-55
2022/09/03 10:24:02;;;;;;;2.17;1.30;;;23.90;38.80;;;;;;5034991;28;20226;-55
2022/09/03 10:26:30;;;;;;;1.90;1.50;;;24.10;43.80;;;;;;5034837;28;20226;-56
2022/09/03 10:28:58;;;;;;;2.70;1.40;;;24.10;41.20;;;;;;5035000;28;20202;-56
2022/09/03 10:31:49;;;;;;;2.43;1.40;;;24.20;39.80;;;;;;5035366;28;20210;-55
2022/09/03 10:34:22;;;;;;;2.33;1.60;;;24.40;42.80;;;;;;5035051;28;20222;-54
2022/09/03 10:37:02;;;;;;;1.47;1.33;;;24.10;39.40;;;;;;5034915;28;20256;-55
2022/09/03 10:39:42;;;;;;;1.63;1.40;;;24.20;37.60;;;;;;5034953;28;20685;-57
2022/09/03 10:42:25;;;;;;;1.40;1.30;;;24.40;35.50;;;;;;5034730;28;20206;-56
2022/09/03 10:45:03;;;;;;;2.30;1.30;;;24.60;42.10;;;;;;5033293;28;20238;-54
2022/09/03 10:47:44;;;;;;;6.50;1.90;;;24.70;44.50;;;;;;5029109;28;20271;-61
2022/09/03 10:50:15;;;;;;;1.63;1.37;;;24.70;42.40;;;;;;5034480;28;20190;-61
2022/09/03 10:52:59;;;;;;;3.63;1.63;;;24.80;44.90;;;;;;5034348;28;20206;-61
2022/09/03 10:55:36;;;;;;;3.63;1.60;;;24.60;57.40;;;;;;5034296;28;20230;-62
2022/09/03 10:58:16;;;;;;;5.67;1.60;;;24.60;38.90;;;;;;5033813;28;20208;-61
2022/09/03 11:00:52;;;;;;;2.00;1.40;;;24.60;38.80;;;;;;5034294;28;20206;-60
2022/09/03 11:03:48;;;;;;;3.70;1.60;;;24.70;39.20;;;;;;5033848;28;20264;-60
2022/09/03 11:06:19;;;;;;;3.00;1.50;;;24.40;40.00;;;;;;5033943;28;20217;-59
2022/09/03 11:08:55;;;;;;;2.70;1.30;;;24.40;37.60;;;;;;5027083;28;20210;-60
2022/09/03 11:11:26;;;;;;;2.70;1.40;;;24.50;36.10;;;;;;5030940;28;20210;-60
2022/09/03 11:13:58;;;;;;;3.03;1.63;;;24.40;38.90;;;;;;5031669;28;20236;-59
2022/09/03 11:16:31;;;;;;;6.73;1.47;;;24.60;36.70;;;;;;5031926;28;20206;-63
2022/09/03 11:19:04;;;;;;;2.27;1.57;;;24.60;39.60;;;;;;5031326;28;20301;-62
2022/09/03 11:21:34;;;;;;;3.77;1.70;;;24.60;35.50;;;;;;5031618;28;20259;-65
2022/09/03 11:24:09;;;;;;;1.50;1.40;;;24.70;40.80;;;;;;5031432;28;20241;-65
2022/09/03 11:26:38;;;;;;;1.87;1.70;;;24.70;39.90;;;;;;5032756;28;20218;-65
2022/09/03 11:29:11;;;;;;;2.70;1.60;;;24.60;37.70;;;;;;5031354;28;20245;-62
2022/09/03 11:31:49;;;;;;;2.43;1.37;;;24.80;43.70;;;;;;5031792;28;20264;-63
2022/09/03 11:34:29;;;;;;;2.73;1.37;;;24.90;45.30;;;;;;5031563;28;20268;-62
2022/09/03 11:37:06;;;;;;;1.90;1.57;;;25.00;46.80;;;;;;5048298;28;20240;-63
2022/09/03 11:39:38;;;;;;;5.03;1.30;;;25.10;44.00;;;;;;5050804;28;20206;-63
2022/09/03 11:42:11;;;;;;;1.60;1.40;;;24.90;58.20;;;;;;5050263;28;20754;-63
2022/09/03 11:44:39;;;;;;;2.00;1.70;;;25.10;43.30;;;;;;5051530;28;20237;-60
2022/09/03 11:47:16;;;;;;;2.20;1.50;;;24.80;41.40;;;;;;5051395;28;20230;-60
2022/09/03 11:49:49;;;;;;;1.50;1.40;;;24.90;42.70;;;;;;5051894;28;20296;-63
2022/09/03 11:52:27;;;;;;;2.93;1.40;;;24.80;43.70;;;;;;5051065;28;20212;-62
2022/09/03 11:54:55;;;;;;;2.50;1.50;;;24.80;42.00;;;;;;5051534;28;20263;-63
2022/09/03 11:57:28;;;;;;;3.67;1.73;;;24.80;44.30;;;;;;5049999;28;20244;-62
2022/09/03 12:00:06;;;;;;;1.57;1.20;;;24.50;39.30;;;;;;5050901;28;20560;-62
2022/09/03 12:02:37;;;;;;;1.70;1.30;;;24.40;36.20;;;;;;5050407;28;20588;-62
2022/09/03 12:05:18;;;;;;;2.40;1.67;;;24.10;32.40;;;;;;5051123;28;20236;-61
2022/09/03 12:08:14;;;;;;;2.37;1.40;;;23.90;32.10;;;;;;5048612;28;20225;-62
2022/09/03 12:10:53;;;;;;;2.10;1.70;;;23.80;32.40;;;;;;5030902;28;20202;-62
2022/09/03 12:13:39;;;;;;;1.90;1.50;;;23.90;30.30;;;;;;5029160;28;20555;-63
2022/09/03 12:16:39;;;;;;;9.07;1.70;;;23.90;32.30;;;;;;5031648;28;20297;-62
2022/09/03 12:19:19;;;;;;;2.60;1.27;;;23.80;32.00;;;;;;5030735;28;20235;-63
2022/09/03 12:21:48;;;;;;;1.73;1.60;;;23.60;29.00;;;;;;5031650;28;20206;-63
2022/09/03 12:24:16;;;;;;;4.97;1.30;;;23.50;27.80;;;;;;5030342;28;20230;-63
2022/09/03 12:26:44;;;;;;;4.23;1.63;;;23.60;32.50;;;;;;5029778;28;20236;-61
2022/09/03 12:29:24;;;;;;;1.93;1.50;;;23.80;30.90;;;;;;5032717;28;20280;-63
2022/09/03 12:31:51;;;;;;;4.73;1.70;;;23.90;34.30;;;;;;5031705;28;20561;-63
2022/09/03 12:34:20;;;;;;;1.83;1.43;;;23.90;34.70;;;;;;5033075;28;20230;-61
2022/09/03 12:36:48;;;;;;;2.83;1.20;;;23.80;35.50;;;;;;5026394;28;20632;-61
2022/09/03 12:39:18;;;;;;;1.80;1.70;;;23.60;34.10;;;;;;5032481;28;20207;-61
2022/09/03 12:41:57;;;;;;;1.77;1.60;;;23.70;37.30;;;;;;5032545;28;20206;-62
2022/09/03 12:44:28;;;;;;;4.13;2.03;;;23.80;38.30;;;;;;5031753;28;20269;-60
2022/09/03 12:47:01;;;;;;;3.23;1.60;;;23.80;37.40;;;;;;5032357;28;20238;-61
2022/09/03 12:49:27;;;;;;;4.33;2.03;;;23.70;36.60;;;;;;5032779;28;20201;-62
2022/09/03 12:52:02;;;;;;;3.23;1.77;;;23.50;33.60;;;;;;5032102;28;20233;-60
2022/09/03 12:54:30;;;;;;;2.87;1.57;;;23.50;34.10;;;;;;5032871;28;20225;-62
2022/09/03 12:56:59;;;;;;;3.30;1.70;;;23.10;31.10;;;;;;5032108;28;20206;-62
2022/09/03 12:59:31;;;;;;;2.93;1.97;;;23.00;31.40;;;;;;5032255;28;20202;-61
2022/09/03 13:02:02;;;;;;;6.77;1.70;;;22.90;32.20;;;;;;5031997;28;20647;-62
2022/09/03 13:04:36;;;;;;;2.43;1.70;;;22.90;33.10;;;;;;5032023;28;20230;-61
2022/09/03 13:07:05;;;;;;;3.00;2.00;;;22.80;33.10;;;;;;5032090;28;20234;-60
2022/09/03 13:09:36;;;;;;;5.13;1.80;;;22.70;34.80;;;;;;5031830;28;20622;-60
2022/09/03 13:12:07;;;;;;;2.53;1.83;;;22.80;34.50;;;;;;5031691;28;20669;-61
2022/09/03 13:14:43;;;;;;;2.00;1.80;;;22.70;35.90;;;;;;5032301;28;20283;-62
2022/09/03 13:17:26;;;;;;;2.37;1.87;;;22.70;35.60;;;;;;5031920;28;20202;-59